createdAt,value
2023-03-23T16:01:15.370Z,1.85
2023-03-23T16:11:20.462Z,1.95
2023-03-23T16:21:23.901Z,1.75
2023-03-23T16:31:28.491Z,1.90
2023-03-23T16:41:31.978Z,1.92
2023-03-23T16:51:36.535Z,2.25
2023-03-23T17:01:41.114Z,2.50
2023-03-23T17:11:45.828Z,2.58
2023-03-23T17:21:49.006Z,2.53
2023-03-23T17:31:53.695Z,1.90
2023-03-23T17:41:56.948Z,2.08
2023-03-23T17:52:01.932Z,2.03
2023-03-23T18:02:05.184Z,2.58
2023-03-23T18:12:09.893Z,3.00
2023-03-23T18:22:13.019Z,2.90
2023-03-23T18:32:19.661Z,2.85
2023-03-23T18:42:22.889Z,3.65
2023-03-23T18:52:30.802Z,3.10
2023-03-23T19:02:35.203Z,3.67
2023-03-23T19:12:39.789Z,3.28
2023-03-23T19:22:43.005Z,3.63
2023-03-23T19:32:48.391Z,4.72
2023-03-23T19:42:51.629Z,4.03
2023-03-23T19:52:58.410Z,4.32
2023-03-23T20:03:03.599Z,3.95
2023-03-23T20:13:10.159Z,4.13
2023-03-23T20:23:13.994Z,4.30
2023-03-23T20:33:19.717Z,4.05
2023-03-23T20:43:22.921Z,4.13
2023-03-23T20:53:31.810Z,4.22
2023-03-23T21:03:39.333Z,4.72
2023-03-23T21:13:45.784Z,5.00
2023-03-23T21:23:52.507Z,4.78
2023-03-23T21:33:58.259Z,4.25
2023-03-23T21:44:01.955Z,3.97
2023-03-23T21:54:08.080Z,4.07
2023-03-23T22:04:11.542Z,3.83
2023-03-23T22:14:16.360Z,4.10
2023-03-23T22:24:19.826Z,4.70
2023-03-23T22:34:24.602Z,3.75
2023-03-23T22:44:28.097Z,3.05
2023-03-23T22:54:32.922Z,3.50
2023-03-23T23:04:37.102Z,4.15
2023-03-23T23:14:44.719Z,4.10
2023-03-23T23:24:48.354Z,4.40
2023-03-23T23:34:53.805Z,4.20
2023-03-23T23:44:57.196Z,4.07
2023-03-23T23:55:01.823Z,4.47
